Tropical Cyclones
[Index]
Main Index Home Page Stock Weather Photos Extreme Storms Discussion Storm News and Storm Chasing Reports Tropical Cyclones / Hurricanes / Typhoons Weather Data and Links Wild Fires / Bushfires Weather Observation Techniques Weather Picture Catalogue Tornado Pictures and Reports Stock Video Footage and DVDs for sale
Season 1995-1996 Tropical Cyclone FLOSSY Track Map
Season 1995-1996 Summaries: [BoM-AU] [JTWC-AU] [JTWC-SIO] [JTWC-SPAC] [JTWC-SH]
<<- Previous TC | JTWC 1995-1996 Season | Next TC ->>

click for intensity scale information  Lat/long Grid: Show Hide

 Date Labels: Show Hide

Joint Typhoon Warning Centre Cyclone Data

Name: FLOSSY

26 Feb 1996 00:00 UTC to 04 Mar 1996 12:00 UTC

    date/time    lat    long     hPa   cat  kts
1996-02-26 00   12.0    74.0                  20          
1996-02-26 06   11.9    73.5                  20          
1996-02-26 12   11.9    73.0                  25          
1996-02-26 18   11.9    72.5                  25          
1996-02-27 00   12.1    72.0                  30          
1996-02-27 06   12.5    71.4                  35          
1996-02-27 12   13.2    70.7            1     40          
1996-02-27 18   14.0    69.8            2     55          
1996-02-28 00   14.7    69.1            2     70          
1996-02-28 06   15.5    68.1            3     85          
1996-02-28 12   16.3    67.1            4    100          
1996-02-28 18   16.9    66.1            4    115          
1996-02-29 00   17.5    65.1            4    115          
1996-02-29 06   18.2    64.1            4    110          
1996-02-29 12   18.8    63.1            4    105          
1996-02-29 18   19.5    62.2            4    100          
1996-03-01 00   20.2    61.4            4    100          
1996-03-01 06   20.9    60.6            4    100          
1996-03-01 12   21.5    60.0            3     95          
1996-03-01 18   22.2    59.4            3     90          
1996-03-02 00   22.7    59.2            3     85          
1996-03-02 06   23.2    59.1            3     75          
1996-03-02 12   23.7    59.2            2     65          
1996-03-02 18   24.3    59.6            2     60          
1996-03-03 00   25.0    60.3            2     55          
1996-03-03 06   25.7    61.1            1     50          
1996-03-03 12   26.2    62.0            1     45          
1996-03-03 18   26.8    62.9            1     40          
1996-03-04 00   27.4    63.8                  35          
1996-03-04 06   28.0    64.7                  35          
1996-03-04 12   28.6    65.5                  35          
Winds are 1-min average.

Tropical cyclone tracks developed by Michael Bath using data from the Joint Typhoon Warning Centre Best Tracks and Google Maps.


[Australian Severe Weather index] [Copyright Notice] [Email Contacts] [Search This Site] [Privacy Policy]
Document: tropical_cyclone_flossy.htm Updated: 18 September 2016